sensor_id;sensor_type;location;lat;lon;timestamp;P1;durP1;ratioP1;P2;durP2;ratioP2
7729;SDS011;3908;52.310;7.230;2022-08-19T00:02:41;12.23;;;6.93;;
7729;SDS011;3908;52.310;7.230;2022-08-19T00:05:28;9.83;;;7.20;;
7729;SDS011;3908;52.310;7.230;2022-08-19T00:08:16;11.27;;;7.40;;
7729;SDS011;3908;52.310;7.230;2022-08-19T00:11:04;13.60;;;7.77;;
7729;SDS011;3908;52.310;7.230;2022-08-19T00:13:52;10.40;;;7.37;;
7729;SDS011;3908;52.310;7.230;2022-08-19T00:16:40;7.60;;;5.90;;
7729;SDS011;3908;52.310;7.230;2022-08-19T00:19:28;13.17;;;8.43;;
7729;SDS011;3908;52.310;7.230;2022-08-19T00:22:15;11.03;;;6.97;;
7729;SDS011;3908;52.310;7.230;2022-08-19T00:25:04;8.70;;;6.00;;
7729;SDS011;3908;52.310;7.230;2022-08-19T00:27:53;8.83;;;6.97;;
7729;SDS011;3908;52.310;7.230;2022-08-19T00:30:41;8.67;;;7.47;;
7729;SDS011;3908;52.310;7.230;2022-08-19T00:33:27;12.27;;;7.80;;
7729;SDS011;3908;52.310;7.230;2022-08-19T00:36:17;8.90;;;7.27;;
7729;SDS011;3908;52.310;7.230;2022-08-19T00:39:04;9.90;;;7.87;;
7729;SDS011;3908;52.310;7.230;2022-08-19T00:41:51;11.60;;;8.27;;
7729;SDS011;3908;52.310;7.230;2022-08-19T00:44:40;12.17;;;8.17;;
7729;SDS011;3908;52.310;7.230;2022-08-19T00:47:28;12.80;;;8.07;;
7729;SDS011;3908;52.310;7.230;2022-08-19T00:50:16;13.30;;;8.43;;
7729;SDS011;3908;52.310;7.230;2022-08-19T00:53:04;9.83;;;7.70;;
7729;SDS011;3908;52.310;7.230;2022-08-19T00:55:54;9.07;;;7.40;;
7729;SDS011;3908;52.310;7.230;2022-08-19T00:58:43;14.03;;;8.87;;
7729;SDS011;3908;52.310;7.230;2022-08-19T01:01:31;9.40;;;7.10;;
7729;SDS011;3908;52.310;7.230;2022-08-19T01:04:18;10.30;;;7.13;;
7729;SDS011;3908;52.310;7.230;2022-08-19T01:07:05;15.23;;;9.17;;
7729;SDS011;3908;52.310;7.230;2022-08-19T01:09:53;12.40;;;7.37;;
7729;SDS011;3908;52.310;7.230;2022-08-19T01:12:40;12.40;;;7.80;;
7729;SDS011;3908;52.310;7.230;2022-08-19T01:15:29;12.77;;;8.37;;
7729;SDS011;3908;52.310;7.230;2022-08-19T01:18:19;14.03;;;8.73;;
7729;SDS011;3908;52.310;7.230;2022-08-19T01:21:08;14.93;;;7.67;;
7729;SDS011;3908;52.310;7.230;2022-08-19T01:24:02;12.40;;;8.60;;
7729;SDS011;3908;52.310;7.230;2022-08-19T01:26:49;13.37;;;9.80;;
7729;SDS011;3908;52.310;7.230;2022-08-19T01:29:37;12.73;;;9.53;;
7729;SDS011;3908;52.310;7.230;2022-08-19T01:32:25;10.80;;;8.20;;
7729;SDS011;3908;52.310;7.230;2022-08-19T01:35:12;12.80;;;8.40;;
7729;SDS011;3908;52.310;7.230;2022-08-19T01:38:03;10.13;;;8.20;;
7729;SDS011;3908;52.310;7.230;2022-08-19T01:40:54;15.47;;;10.03;;
7729;SDS011;3908;52.310;7.230;2022-08-19T01:43:40;11.30;;;8.97;;
7729;SDS011;3908;52.310;7.230;2022-08-19T01:46:27;11.20;;;8.37;;
7729;SDS011;3908;52.310;7.230;2022-08-19T01:49:15;11.53;;;8.77;;
7729;SDS011;3908;52.310;7.230;2022-08-19T01:52:04;9.50;;;7.53;;
7729;SDS011;3908;52.310;7.230;2022-08-19T01:54:51;10.30;;;7.67;;
7729;SDS011;3908;52.310;7.230;2022-08-19T01:57:40;11.80;;;8.70;;
7729;SDS011;3908;52.310;7.230;2022-08-19T02:00:29;12.60;;;8.47;;
7729;SDS011;3908;52.310;7.230;2022-08-19T02:03:18;12.97;;;8.60;;
7729;SDS011;3908;52.310;7.230;2022-08-19T02:06:05;14.43;;;8.03;;
7729;SDS011;3908;52.310;7.230;2022-08-19T02:08:53;13.47;;;8.13;;
7729;SDS011;3908;52.310;7.230;2022-08-19T02:11:40;16.20;;;10.20;;
7729;SDS011;3908;52.310;7.230;2022-08-19T02:14:29;12.57;;;8.77;;
7729;SDS011;3908;52.310;7.230;2022-08-19T02:17:16;16.63;;;8.27;;
7729;SDS011;3908;52.310;7.230;2022-08-19T02:20:03;13.23;;;8.53;;
7729;SDS011;3908;52.310;7.230;2022-08-19T02:22:52;12.50;;;8.80;;
7729;SDS011;3908;52.310;7.230;2022-08-19T02:25:39;12.97;;;8.53;;
7729;SDS011;3908;52.310;7.230;2022-08-19T02:28:27;12.63;;;9.63;;
7729;SDS011;3908;52.310;7.230;2022-08-19T02:31:16;11.03;;;9.17;;
7729;SDS011;3908;52.310;7.230;2022-08-19T02:34:05;15.63;;;9.87;;
7729;SDS011;3908;52.310;7.230;2022-08-19T02:36:52;11.27;;;8.63;;
7729;SDS011;3908;52.310;7.230;2022-08-19T02:39:39;12.63;;;8.73;;
7729;SDS011;3908;52.310;7.230;2022-08-19T02:42:25;12.73;;;8.03;;
7729;SDS011;3908;52.310;7.230;2022-08-19T02:45:12;11.07;;;7.90;;
7729;SDS011;3908;52.310;7.230;2022-08-19T02:48:02;10.80;;;7.93;;
7729;SDS011;3908;52.310;7.230;2022-08-19T02:50:51;10.97;;;8.80;;
7729;SDS011;3908;52.310;7.230;2022-08-19T02:53:40;15.40;;;10.23;;
7729;SDS011;3908;52.310;7.230;2022-08-19T02:56:27;13.77;;;9.23;;
7729;SDS011;3908;52.310;7.230;2022-08-19T02:59:16;17.40;;;10.00;;
7729;SDS011;3908;52.310;7.230;2022-08-19T03:02:03;13.83;;;9.30;;
7729;SDS011;3908;52.310;7.230;2022-08-19T03:04:51;12.77;;;9.13;;
7729;SDS011;3908;52.310;7.230;2022-08-19T03:07:38;13.53;;;8.67;;
7729;SDS011;3908;52.310;7.230;2022-08-19T03:10:25;12.10;;;8.77;;
7729;SDS011;3908;52.310;7.230;2022-08-19T03:13:13;13.53;;;8.93;;
7729;SDS011;3908;52.310;7.230;2022-08-19T03:16:03;13.20;;;9.03;;
7729;SDS011;3908;52.310;7.230;2022-08-19T03:18:52;12.53;;;9.37;;
7729;SDS011;3908;52.310;7.230;2022-08-19T03:21:41;11.03;;;7.97;;
7729;SDS011;3908;52.310;7.230;2022-08-19T03:24:30;11.90;;;8.30;;
7729;SDS011;3908;52.310;7.230;2022-08-19T03:27:17;13.80;;;8.53;;
7729;SDS011;3908;52.310;7.230;2022-08-19T03:30:05;12.03;;;8.80;;
7729;SDS011;3908;52.310;7.230;2022-08-19T03:32:52;12.60;;;8.70;;
7729;SDS011;3908;52.310;7.230;2022-08-19T03:35:39;14.27;;;8.97;;
7729;SDS011;3908;52.310;7.230;2022-08-19T03:38:28;14.10;;;9.40;;
7729;SDS011;3908;52.310;7.230;2022-08-19T03:41:16;13.10;;;9.40;;
7729;SDS011;3908;52.310;7.230;2022-08-19T03:44:08;14.10;;;9.73;;
7729;SDS011;3908;52.310;7.230;2022-08-19T03:46:56;14.67;;;8.87;;
7729;SDS011;3908;52.310;7.230;2022-08-19T03:49:44;13.47;;;9.37;;
7729;SDS011;3908;52.310;7.230;2022-08-19T03:52:31;17.40;;;10.60;;
7729;SDS011;3908;52.310;7.230;2022-08-19T03:55:20;17.17;;;10.73;;
7729;SDS011;3908;52.310;7.230;2022-08-19T03:58:07;12.80;;;9.43;;
7729;SDS011;3908;52.310;7.230;2022-08-19T04:00:54;13.57;;;8.67;;
7729;SDS011;3908;52.310;7.230;2022-08-19T04:03:41;14.50;;;9.50;;
7729;SDS011;3908;52.310;7.230;2022-08-19T04:06:29;13.03;;;9.47;;
7729;SDS011;3908;52.310;7.230;2022-08-19T04:09:18;12.23;;;8.83;;
7729;SDS011;3908;52.310;7.230;2022-08-19T04:12:07;11.43;;;8.77;;
7729;SDS011;3908;52.310;7.230;2022-08-19T04:14:54;12.30;;;8.30;;
7729;SDS011;3908;52.310;7.230;2022-08-19T04:17:41;12.13;;;8.10;;
7729;SDS011;3908;52.310;7.230;2022-08-19T04:20:28;10.93;;;7.97;;
7729;SDS011;3908;52.310;7.230;2022-08-19T04:23:15;9.97;;;7.60;;
7729;SDS011;3908;52.310;7.230;2022-08-19T04:26:04;10.33;;;7.80;;
7729;SDS011;3908;52.310;7.230;2022-08-19T04:28:53;14.27;;;9.37;;
7729;SDS011;3908;52.310;7.230;2022-08-19T04:31:41;11.30;;;7.67;;
7729;SDS011;3908;52.310;7.230;2022-08-19T04:34:30;11.53;;;7.97;;
7729;SDS011;3908;52.310;7.230;2022-08-19T04:37:17;13.47;;;9.47;;
7729;SDS011;3908;52.310;7.230;2022-08-19T04:40:05;12.47;;;8.53;;
7729;SDS011;3908;52.310;7.230;2022-08-19T04:43:10;13.57;;;8.20;;
7729;SDS011;3908;52.310;7.230;2022-08-19T04:46:04;11.70;;;9.13;;
7729;SDS011;3908;52.310;7.230;2022-08-19T04:48:53;12.93;;;8.70;;
7729;SDS011;3908;52.310;7.230;2022-08-19T04:51:42;10.70;;;8.10;;
7729;SDS011;3908;52.310;7.230;2022-08-19T04:54:32;13.40;;;8.43;;
7729;SDS011;3908;52.310;7.230;2022-08-19T04:57:19;13.20;;;8.77;;
7729;SDS011;3908;52.310;7.230;2022-08-19T05:00:07;11.77;;;8.67;;
7729;SDS011;3908;52.310;7.230;2022-08-19T05:02:56;11.93;;;8.53;;
7729;SDS011;3908;52.310;7.230;2022-08-19T05:05:43;13.40;;;8.63;;
7729;SDS011;3908;52.310;7.230;2022-08-19T05:08:34;14.13;;;8.63;;
7729;SDS011;3908;52.310;7.230;2022-08-19T05:11:26;11.17;;;7.70;;
7729;SDS011;3908;52.310;7.230;2022-08-19T05:14:14;12.83;;;8.23;;
7729;SDS011;3908;52.310;7.230;2022-08-19T05:17:01;11.13;;;8.93;;
7729;SDS011;3908;52.310;7.230;2022-08-19T05:19:50;13.23;;;9.37;;
7729;SDS011;3908;52.310;7.230;2022-08-19T05:22:54;13.50;;;9.13;;
7729;SDS011;3908;52.310;7.230;2022-08-19T05:25:41;12.40;;;9.57;;
7729;SDS011;3908;52.310;7.230;2022-08-19T05:28:28;12.00;;;9.07;;
7729;SDS011;3908;52.310;7.230;2022-08-19T05:31:15;21.73;;;11.83;;
7729;SDS011;3908;52.310;7.230;2022-08-19T05:34:02;16.67;;;10.70;;
7729;SDS011;3908;52.310;7.230;2022-08-19T05:36:53;14.77;;;11.07;;
7729;SDS011;3908;52.310;7.230;2022-08-19T05:39:42;17.53;;;10.90;;
7729;SDS011;3908;52.310;7.230;2022-08-19T05:42:29;16.47;;;11.17;;
7729;SDS011;3908;52.310;7.230;2022-08-19T05:45:16;15.83;;;11.47;;
7729;SDS011;3908;52.310;7.230;2022-08-19T05:48:03;15.53;;;11.00;;
7729;SDS011;3908;52.310;7.230;2022-08-19T05:50:50;14.63;;;11.20;;
7729;SDS011;3908;52.310;7.230;2022-08-19T05:53:39;16.70;;;11.03;;
7729;SDS011;3908;52.310;7.230;2022-08-19T05:56:26;16.27;;;11.80;;
7729;SDS011;3908;52.310;7.230;2022-08-19T05:59:14;18.17;;;12.53;;
7729;SDS011;3908;52.310;7.230;2022-08-19T06:02:03;19.33;;;14.10;;
7729;SDS011;3908;52.310;7.230;2022-08-19T06:04:52;20.43;;;13.50;;
7729;SDS011;3908;52.310;7.230;2022-08-19T06:07:39;18.83;;;13.13;;
7729;SDS011;3908;52.310;7.230;2022-08-19T06:10:28;16.83;;;12.47;;
7729;SDS011;3908;52.310;7.230;2022-08-19T06:13:15;22.27;;;14.60;;
7729;SDS011;3908;52.310;7.230;2022-08-19T06:16:02;19.40;;;13.07;;
7729;SDS011;3908;52.310;7.230;2022-08-19T06:18:50;19.87;;;13.90;;
7729;SDS011;3908;52.310;7.230;2022-08-19T06:21:39;19.42;;;13.10;;
7729;SDS011;3908;52.310;7.230;2022-08-19T06:24:28;19.38;;;13.52;;
7729;SDS011;3908;52.310;7.230;2022-08-19T06:27:18;21.02;;;13.07;;
7729;SDS011;3908;52.310;7.230;2022-08-19T06:30:06;18.95;;;12.57;;
7729;SDS011;3908;52.310;7.230;2022-08-19T06:32:53;22.00;;;13.15;;
7729;SDS011;3908;52.310;7.230;2022-08-19T06:35:41;18.77;;;13.32;;
7729;SDS011;3908;52.310;7.230;2022-08-19T06:38:28;17.30;;;13.05;;
7729;SDS011;3908;52.310;7.230;2022-08-19T06:41:15;16.52;;;12.35;;
7729;SDS011;3908;52.310;7.230;2022-08-19T06:44:04;19.20;;;11.93;;
7729;SDS011;3908;52.310;7.230;2022-08-19T06:46:52;17.17;;;12.13;;
7729;SDS011;3908;52.310;7.230;2022-08-19T06:49:40;16.50;;;12.10;;
7729;SDS011;3908;52.310;7.230;2022-08-19T06:52:28;14.82;;;10.50;;
7729;SDS011;3908;52.310;7.230;2022-08-19T06:55:15;17.55;;;11.48;;
7729;SDS011;3908;52.310;7.230;2022-08-19T06:58:03;14.93;;;10.52;;
7729;SDS011;3908;52.310;7.230;2022-08-19T07:00:52;16.95;;;11.25;;
7729;SDS011;3908;52.310;7.230;2022-08-19T07:03:39;15.27;;;11.70;;
7729;SDS011;3908;52.310;7.230;2022-08-19T07:06:26;16.15;;;10.80;;
7729;SDS011;3908;52.310;7.230;2022-08-19T07:09:14;14.50;;;9.55;;
7729;SDS011;3908;52.310;7.230;2022-08-19T07:12:03;16.35;;;10.63;;
7729;SDS011;3908;52.310;7.230;2022-08-19T07:14:52;12.32;;;9.50;;
7729;SDS011;3908;52.310;7.230;2022-08-19T07:17:41;13.70;;;9.30;;
7729;SDS011;3908;52.310;7.230;2022-08-19T07:20:28;12.30;;;9.30;;
7729;SDS011;3908;52.310;7.230;2022-08-19T07:23:15;12.63;;;8.77;;
7729;SDS011;3908;52.310;7.230;2022-08-19T07:26:04;11.57;;;8.05;;
7729;SDS011;3908;52.310;7.230;2022-08-19T07:28:52;11.05;;;7.25;;
7729;SDS011;3908;52.310;7.230;2022-08-19T07:31:39;10.32;;;7.28;;
7729;SDS011;3908;52.310;7.230;2022-08-19T07:34:29;11.48;;;7.78;;
7729;SDS011;3908;52.310;7.230;2022-08-19T07:37:19;9.70;;;6.32;;
7729;SDS011;3908;52.310;7.230;2022-08-19T07:40:07;8.38;;;6.32;;
7729;SDS011;3908;52.310;7.230;2022-08-19T07:42:54;10.82;;;6.50;;
7729;SDS011;3908;52.310;7.230;2022-08-19T07:45:41;10.02;;;6.18;;
7729;SDS011;3908;52.310;7.230;2022-08-19T07:48:29;14.82;;;7.28;;
7729;SDS011;3908;52.310;7.230;2022-08-19T07:51:18;8.68;;;7.05;;
7729;SDS011;3908;52.310;7.230;2022-08-19T07:54:07;10.18;;;5.93;;
7729;SDS011;3908;52.310;7.230;2022-08-19T07:56:54;7.45;;;6.00;;
7729;SDS011;3908;52.310;7.230;2022-08-19T07:59:42;7.57;;;5.03;;
7729;SDS011;3908;52.310;7.230;2022-08-19T08:02:29;8.05;;;6.13;;
7729;SDS011;3908;52.310;7.230;2022-08-19T08:05:16;8.45;;;6.35;;
7729;SDS011;3908;52.310;7.230;2022-08-19T08:08:22;9.88;;;5.60;;
7729;SDS011;3908;52.310;7.230;2022-08-19T08:11:26;6.85;;;5.43;;
7729;SDS011;3908;52.310;7.230;2022-08-19T08:14:14;6.95;;;5.63;;
7729;SDS011;3908;52.310;7.230;2022-08-19T08:17:03;6.22;;;4.55;;
7729;SDS011;3908;52.310;7.230;2022-08-19T08:19:51;6.55;;;5.05;;
7729;SDS011;3908;52.310;7.230;2022-08-19T08:22:42;9.38;;;4.90;;
7729;SDS011;3908;52.310;7.230;2022-08-19T08:25:49;9.43;;;4.90;;
7729;SDS011;3908;52.310;7.230;2022-08-19T08:28:36;9.48;;;5.65;;
7729;SDS011;3908;52.310;7.230;2022-08-19T08:31:23;7.40;;;5.82;;
7729;SDS011;3908;52.310;7.230;2022-08-19T08:34:10;6.97;;;5.50;;
7729;SDS011;3908;52.310;7.230;2022-08-19T08:36:59;7.97;;;4.68;;
7729;SDS011;3908;52.310;7.230;2022-08-19T08:39:45;10.25;;;6.88;;
7729;SDS011;3908;52.310;7.230;2022-08-19T08:42:36;10.13;;;6.43;;
7729;SDS011;3908;52.310;7.230;2022-08-19T08:45:30;8.27;;;5.68;;
7729;SDS011;3908;52.310;7.230;2022-08-19T08:48:27;9.55;;;6.53;;
7729;SDS011;3908;52.310;7.230;2022-08-19T08:51:23;8.05;;;6.22;;
7729;SDS011;3908;52.310;7.230;2022-08-19T08:54:15;10.73;;;6.30;;
7729;SDS011;3908;52.310;7.230;2022-08-19T08:57:07;11.63;;;5.90;;
7729;SDS011;3908;52.310;7.230;2022-08-19T09:00:00;6.65;;;5.95;;
7729;SDS011;3908;52.310;7.230;2022-08-19T09:02:51;8.57;;;6.88;;
7729;SDS011;3908;52.310;7.230;2022-08-19T09:05:39;10.35;;;7.97;;
7729;SDS011;3908;52.310;7.230;2022-08-19T09:08:40;8.63;;;7.70;;
7729;SDS011;3908;52.310;7.230;2022-08-19T09:11:39;10.98;;;7.65;;
7729;SDS011;3908;52.310;7.230;2022-08-19T09:14:38;10.30;;;7.53;;
7729;SDS011;3908;52.310;7.230;2022-08-19T09:17:36;9.15;;;7.30;;
7729;SDS011;3908;52.310;7.230;2022-08-19T09:20:24;10.07;;;7.60;;
7729;SDS011;3908;52.310;7.230;2022-08-19T09:23:11;9.07;;;7.28;;
7729;SDS011;3908;52.310;7.230;2022-08-19T09:25:58;10.00;;;7.50;;
7729;SDS011;3908;52.310;7.230;2022-08-19T09:28:45;8.90;;;6.25;;
7729;SDS011;3908;52.310;7.230;2022-08-19T09:31:34;14.48;;;7.63;;
7729;SDS011;3908;52.310;7.230;2022-08-19T09:34:22;8.88;;;7.10;;
7729;SDS011;3908;52.310;7.230;2022-08-19T09:37:09;7.18;;;6.47;;
7729;SDS011;3908;52.310;7.230;2022-08-19T09:39:56;10.10;;;7.68;;
7729;SDS011;3908;52.310;7.230;2022-08-19T09:42:44;7.80;;;5.97;;
7729;SDS011;3908;52.310;7.230;2022-08-19T09:45:32;5.80;;;4.00;;
7729;SDS011;3908;52.310;7.230;2022-08-19T09:48:19;5.35;;;3.85;;
7729;SDS011;3908;52.310;7.230;2022-08-19T09:51:09;7.25;;;4.20;;
7729;SDS011;3908;52.310;7.230;2022-08-19T09:54:01;6.70;;;5.57;;
7729;SDS011;3908;52.310;7.230;2022-08-19T09:56:49;6.97;;;4.68;;
7729;SDS011;3908;52.310;7.230;2022-08-19T09:59:36;6.35;;;5.03;;
7729;SDS011;3908;52.310;7.230;2022-08-19T10:02:25;8.52;;;5.43;;
7729;SDS011;3908;52.310;7.230;2022-08-19T10:05:12;5.13;;;4.53;;
7729;SDS011;3908;52.310;7.230;2022-08-19T10:08:19;8.40;;;6.43;;
7729;SDS011;3908;52.310;7.230;2022-08-19T10:11:08;7.68;;;6.00;;
7729;SDS011;3908;52.310;7.230;2022-08-19T10:13:56;6.55;;;5.20;;
7729;SDS011;3908;52.310;7.230;2022-08-19T10:16:43;7.35;;;4.47;;
7729;SDS011;3908;52.310;7.230;2022-08-19T10:19:30;8.45;;;5.30;;
7729;SDS011;3908;52.310;7.230;2022-08-19T10:22:21;7.78;;;4.50;;
7729;SDS011;3908;52.310;7.230;2022-08-19T10:25:10;8.85;;;4.85;;
7729;SDS011;3908;52.310;7.230;2022-08-19T10:28:05;7.15;;;5.40;;
7729;SDS011;3908;52.310;7.230;2022-08-19T10:30:52;7.30;;;5.78;;
7729;SDS011;3908;52.310;7.230;2022-08-19T10:33:39;5.70;;;4.60;;
7729;SDS011;3908;52.310;7.230;2022-08-19T10:36:31;6.00;;;4.10;;
7729;SDS011;3908;52.310;7.230;2022-08-19T10:39:20;6.70;;;5.57;;
7729;SDS011;3908;52.310;7.230;2022-08-19T10:42:08;6.25;;;4.53;;
7729;SDS011;3908;52.310;7.230;2022-08-19T10:44:58;6.82;;;4.88;;
7729;SDS011;3908;52.310;7.230;2022-08-19T10:47:45;8.48;;;4.57;;
7729;SDS011;3908;52.310;7.230;2022-08-19T10:50:32;7.43;;;4.80;;
7729;SDS011;3908;52.310;7.230;2022-08-19T10:53:36;6.85;;;4.32;;
7729;SDS011;3908;52.310;7.230;2022-08-19T10:56:23;6.45;;;4.38;;
7729;SDS011;3908;52.310;7.230;2022-08-19T10:59:29;4.10;;;3.70;;
7729;SDS011;3908;52.310;7.230;2022-08-19T11:02:17;6.03;;;4.25;;
7729;SDS011;3908;52.310;7.230;2022-08-19T11:05:05;4.70;;;3.70;;
7729;SDS011;3908;52.310;7.230;2022-08-19T11:07:53;5.55;;;4.95;;
7729;SDS011;3908;52.310;7.230;2022-08-19T11:10:41;6.38;;;4.93;;
7729;SDS011;3908;52.310;7.230;2022-08-19T11:13:29;6.53;;;4.90;;
7729;SDS011;3908;52.310;7.230;2022-08-19T11:16:20;6.13;;;4.20;;
7729;SDS011;3908;52.310;7.230;2022-08-19T11:19:10;5.25;;;4.43;;
7729;SDS011;3908;52.310;7.230;2022-08-19T11:21:59;7.97;;;4.90;;
7729;SDS011;3908;52.310;7.230;2022-08-19T11:24:48;4.97;;;4.35;;
7729;SDS011;3908;52.310;7.230;2022-08-19T11:27:37;4.80;;;4.10;;
7729;SDS011;3908;52.310;7.230;2022-08-19T11:30:25;5.10;;;4.60;;
7729;SDS011;3908;52.310;7.230;2022-08-19T11:33:14;8.40;;;4.20;;
7729;SDS011;3908;52.310;7.230;2022-08-19T11:36:01;6.70;;;4.82;;
7729;SDS011;3908;52.310;7.230;2022-08-19T11:38:49;5.50;;;4.32;;
7729;SDS011;3908;52.310;7.230;2022-08-19T11:41:36;8.65;;;4.97;;
7729;SDS011;3908;52.310;7.230;2022-08-19T11:44:23;5.13;;;4.50;;
7729;SDS011;3908;52.310;7.230;2022-08-19T11:47:10;5.53;;;4.25;;
7729;SDS011;3908;52.310;7.230;2022-08-19T11:49:59;6.30;;;4.38;;
7729;SDS011;3908;52.310;7.230;2022-08-19T11:52:46;5.82;;;4.20;;
7729;SDS011;3908;52.310;7.230;2022-08-19T11:55:36;6.60;;;5.05;;
7729;SDS011;3908;52.310;7.230;2022-08-19T11:58:24;6.95;;;4.75;;
7729;SDS011;3908;52.310;7.230;2022-08-19T12:01:12;6.18;;;4.28;;
7729;SDS011;3908;52.310;7.230;2022-08-19T12:04:01;4.28;;;3.47;;
7729;SDS011;3908;52.310;7.230;2022-08-19T12:06:51;5.80;;;4.72;;
7729;SDS011;3908;52.310;7.230;2022-08-19T12:09:38;4.70;;;4.20;;
7729;SDS011;3908;52.310;7.230;2022-08-19T12:12:25;5.05;;;4.55;;
7729;SDS011;3908;52.310;7.230;2022-08-19T12:15:13;6.53;;;3.83;;
7729;SDS011;3908;52.310;7.230;2022-08-19T12:18:00;5.50;;;4.03;;
7729;SDS011;3908;52.310;7.230;2022-08-19T12:20:47;5.45;;;4.15;;
7729;SDS011;3908;52.310;7.230;2022-08-19T12:23:39;4.80;;;4.30;;
7729;SDS011;3908;52.310;7.230;2022-08-19T12:26:27;7.97;;;5.07;;
7729;SDS011;3908;52.310;7.230;2022-08-19T12:29:16;6.88;;;4.90;;
7729;SDS011;3908;52.310;7.230;2022-08-19T12:32:03;7.20;;;4.30;;
7729;SDS011;3908;52.310;7.230;2022-08-19T12:34:50;6.25;;;4.75;;
7729;SDS011;3908;52.310;7.230;2022-08-19T12:37:38;6.10;;;5.05;;
7729;SDS011;3908;52.310;7.230;2022-08-19T12:40:31;5.50;;;4.38;;
7729;SDS011;3908;52.310;7.230;2022-08-19T12:43:18;8.05;;;5.40;;
7729;SDS011;3908;52.310;7.230;2022-08-19T12:46:05;5.55;;;4.95;;
7729;SDS011;3908;52.310;7.230;2022-08-19T12:48:53;6.43;;;5.82;;
7729;SDS011;3908;52.310;7.230;2022-08-19T12:51:42;7.68;;;5.55;;
7729;SDS011;3908;52.310;7.230;2022-08-19T12:54:29;6.90;;;5.53;;
7729;SDS011;3908;52.310;7.230;2022-08-19T12:57:18;8.95;;;6.18;;
7729;SDS011;3908;52.310;7.230;2022-08-19T13:00:06;7.75;;;6.07;;
7729;SDS011;3908;52.310;7.230;2022-08-19T13:02:56;10.80;;;6.25;;
7729;SDS011;3908;52.310;7.230;2022-08-19T13:05:43;8.30;;;5.00;;
7729;SDS011;3908;52.310;7.230;2022-08-19T13:08:30;8.15;;;5.60;;
7729;SDS011;3908;52.310;7.230;2022-08-19T13:11:19;7.18;;;5.88;;
7729;SDS011;3908;52.310;7.230;2022-08-19T13:14:11;5.97;;;5.38;;
7729;SDS011;3908;52.310;7.230;2022-08-19T13:16:57;7.47;;;5.10;;
7729;SDS011;3908;52.310;7.230;2022-08-19T13:19:44;7.47;;;6.40;;
7729;SDS011;3908;52.310;7.230;2022-08-19T13:22:31;7.72;;;6.93;;
7729;SDS011;3908;52.310;7.230;2022-08-19T13:25:18;8.88;;;6.47;;
7729;SDS011;3908;52.310;7.230;2022-08-19T13:28:06;9.05;;;6.38;;
7729;SDS011;3908;52.310;7.230;2022-08-19T13:30:54;8.43;;;6.72;;
7729;SDS011;3908;52.310;7.230;2022-08-19T13:33:59;6.45;;;5.75;;
7729;SDS011;3908;52.310;7.230;2022-08-19T13:36:46;7.35;;;6.35;;
7729;SDS011;3908;52.310;7.230;2022-08-19T13:39:33;6.10;;;5.50;;
7729;SDS011;3908;52.310;7.230;2022-08-19T13:42:21;6.70;;;5.93;;
7729;SDS011;3908;52.310;7.230;2022-08-19T13:45:09;7.47;;;6.43;;
7729;SDS011;3908;52.310;7.230;2022-08-19T13:47:58;7.50;;;6.28;;
7729;SDS011;3908;52.310;7.230;2022-08-19T13:50:45;6.38;;;5.15;;
7729;SDS011;3908;52.310;7.230;2022-08-19T13:53:33;6.40;;;5.55;;
7729;SDS011;3908;52.310;7.230;2022-08-19T13:56:20;11.00;;;5.30;;
7729;SDS011;3908;52.310;7.230;2022-08-19T13:59:07;9.35;;;5.50;;
7729;SDS011;3908;52.310;7.230;2022-08-19T14:01:57;14.52;;;5.63;;
7729;SDS011;3908;52.310;7.230;2022-08-19T14:04:46;6.25;;;4.85;;
7729;SDS011;3908;52.310;7.230;2022-08-19T14:07:33;7.43;;;6.15;;
7729;SDS011;3908;52.310;7.230;2022-08-19T14:10:20;10.73;;;7.78;;
7729;SDS011;3908;52.310;7.230;2022-08-19T14:13:08;9.60;;;7.00;;
7729;SDS011;3908;52.310;7.230;2022-08-19T14:15:55;10.52;;;8.02;;
7729;SDS011;3908;52.310;7.230;2022-08-19T14:18:42;11.98;;;7.90;;
7729;SDS011;3908;52.310;7.230;2022-08-19T14:21:32;10.23;;;8.48;;
7729;SDS011;3908;52.310;7.230;2022-08-19T14:24:19;11.52;;;7.93;;
7729;SDS011;3908;52.310;7.230;2022-08-19T14:27:06;10.18;;;6.53;;
7729;SDS011;3908;52.310;7.230;2022-08-19T14:29:53;8.15;;;6.90;;
7729;SDS011;3908;52.310;7.230;2022-08-19T14:32:41;10.80;;;7.97;;
7729;SDS011;3908;52.310;7.230;2022-08-19T14:35:29;13.35;;;7.70;;
7729;SDS011;3908;52.310;7.230;2022-08-19T14:38:20;8.35;;;6.63;;
7729;SDS011;3908;52.310;7.230;2022-08-19T14:41:09;10.70;;;7.68;;
7729;SDS011;3908;52.310;7.230;2022-08-19T14:43:58;10.75;;;7.93;;
7729;SDS011;3908;52.310;7.230;2022-08-19T14:46:49;9.10;;;7.68;;
7729;SDS011;3908;52.310;7.230;2022-08-19T14:49:36;9.38;;;7.63;;
7729;SDS011;3908;52.310;7.230;2022-08-19T14:52:24;11.30;;;8.82;;
7729;SDS011;3908;52.310;7.230;2022-08-19T14:55:13;9.55;;;6.68;;
7729;SDS011;3908;52.310;7.230;2022-08-19T14:58:00;7.47;;;6.47;;
7729;SDS011;3908;52.310;7.230;2022-08-19T15:00:47;9.00;;;7.28;;
7729;SDS011;3908;52.310;7.230;2022-08-19T15:03:34;8.07;;;6.72;;
7729;SDS011;3908;52.310;7.230;2022-08-19T15:06:21;9.80;;;7.10;;
7729;SDS011;3908;52.310;7.230;2022-08-19T15:09:12;7.95;;;6.43;;
7729;SDS011;3908;52.310;7.230;2022-08-19T15:12:01;7.63;;;6.57;;
7729;SDS011;3908;52.310;7.230;2022-08-19T15:14:49;10.45;;;6.40;;
7729;SDS011;3908;52.310;7.230;2022-08-19T15:17:37;9.75;;;7.13;;
7729;SDS011;3908;52.310;7.230;2022-08-19T15:20:25;9.88;;;6.45;;
7729;SDS011;3908;52.310;7.230;2022-08-19T15:23:12;8.85;;;6.38;;
7729;SDS011;3908;52.310;7.230;2022-08-19T15:26:00;7.00;;;5.70;;
7729;SDS011;3908;52.310;7.230;2022-08-19T15:28:48;8.18;;;5.80;;
7729;SDS011;3908;52.310;7.230;2022-08-19T15:31:35;8.00;;;5.93;;
7729;SDS011;3908;52.310;7.230;2022-08-19T15:34:22;7.85;;;5.80;;
7729;SDS011;3908;52.310;7.230;2022-08-19T15:37:10;7.72;;;5.93;;
7729;SDS011;3908;52.310;7.230;2022-08-19T15:39:57;6.85;;;5.53;;
7729;SDS011;3908;52.310;7.230;2022-08-19T15:42:44;7.35;;;5.63;;
7729;SDS011;3908;52.310;7.230;2022-08-19T15:45:33;6.80;;;5.25;;
7729;SDS011;3908;52.310;7.230;2022-08-19T15:48:20;7.07;;;5.68;;
7729;SDS011;3908;52.310;7.230;2022-08-19T15:51:07;10.20;;;7.53;;
7729;SDS011;3908;52.310;7.230;2022-08-19T15:53:54;8.60;;;6.88;;
7729;SDS011;3908;52.310;7.230;2022-08-19T15:56:42;8.70;;;7.03;;
7729;SDS011;3908;52.310;7.230;2022-08-19T15:59:46;8.20;;;6.93;;
7729;SDS011;3908;52.310;7.230;2022-08-19T16:02:52;7.95;;;7.15;;
7729;SDS011;3908;52.310;7.230;2022-08-19T16:05:57;9.75;;;7.35;;
7729;SDS011;3908;52.310;7.230;2022-08-19T16:09:02;9.05;;;6.78;;
7729;SDS011;3908;52.310;7.230;2022-08-19T16:11:50;9.00;;;6.38;;
7729;SDS011;3908;52.310;7.230;2022-08-19T16:14:37;8.95;;;6.53;;
7729;SDS011;3908;52.310;7.230;2022-08-19T16:17:24;14.90;;;6.57;;
7729;SDS011;3908;52.310;7.230;2022-08-19T16:20:13;8.85;;;6.88;;
7729;SDS011;3908;52.310;7.230;2022-08-19T16:23:01;8.30;;;6.30;;
7729;SDS011;3908;52.310;7.230;2022-08-19T16:25:49;9.82;;;6.65;;
7729;SDS011;3908;52.310;7.230;2022-08-19T16:28:36;8.95;;;6.32;;
7729;SDS011;3908;52.310;7.230;2022-08-19T16:31:23;8.73;;;6.13;;
7729;SDS011;3908;52.310;7.230;2022-08-19T16:34:11;9.43;;;6.38;;
7729;SDS011;3908;52.310;7.230;2022-08-19T16:37:00;7.18;;;5.88;;
7729;SDS011;3908;52.310;7.230;2022-08-19T16:39:47;8.07;;;6.57;;
7729;SDS011;3908;52.310;7.230;2022-08-19T16:42:35;8.90;;;6.55;;
7729;SDS011;3908;52.310;7.230;2022-08-19T16:45:22;10.70;;;6.63;;
7729;SDS011;3908;52.310;7.230;2022-08-19T16:48:08;13.45;;;6.55;;
7729;SDS011;3908;52.310;7.230;2022-08-19T16:50:56;8.00;;;6.38;;
7729;SDS011;3908;52.310;7.230;2022-08-19T16:53:45;8.52;;;6.65;;
7729;SDS011;3908;52.310;7.230;2022-08-19T16:56:32;8.10;;;6.15;;
7729;SDS011;3908;52.310;7.230;2022-08-19T16:59:20;9.75;;;6.78;;
7729;SDS011;3908;52.310;7.230;2022-08-19T17:02:07;8.25;;;5.45;;
7729;SDS011;3908;52.310;7.230;2022-08-19T17:04:54;8.13;;;5.93;;
7729;SDS011;3908;52.310;7.230;2022-08-19T17:07:41;7.38;;;5.90;;
7729;SDS011;3908;52.310;7.230;2022-08-19T17:10:30;9.27;;;6.78;;
7729;SDS011;3908;52.310;7.230;2022-08-19T17:13:17;9.25;;;6.82;;
7729;SDS011;3908;52.310;7.230;2022-08-19T17:16:04;8.60;;;7.07;;
7729;SDS011;3908;52.310;7.230;2022-08-19T17:18:52;10.85;;;9.00;;
7729;SDS011;3908;52.310;7.230;2022-08-19T17:21:40;15.18;;;10.48;;